sensor_id;sensor_type;location;lat;lon;timestamp;temperature;humidity
1413;DHT22;701;52.526;13.408;2023-04-29T00:01:55;13.80;21.80
1413;DHT22;701;52.526;13.408;2023-04-29T00:04:24;13.70;21.60
1413;DHT22;701;52.526;13.408;2023-04-29T00:06:50;13.70;21.60
1413;DHT22;701;52.526;13.408;2023-04-29T00:09:16;13.70;21.60
1413;DHT22;701;52.526;13.408;2023-04-29T00:11:42;13.70;21.50
1413;DHT22;701;52.526;13.408;2023-04-29T00:14:08;13.80;21.60
1413;DHT22;701;52.526;13.408;2023-04-29T00:16:34;13.70;21.50
1413;DHT22;701;52.526;13.408;2023-04-29T00:19:00;13.70;21.50
1413;DHT22;701;52.526;13.408;2023-04-29T00:21:26;13.80;21.50
1413;DHT22;701;52.526;13.408;2023-04-29T00:23:52;13.70;21.80
1413;DHT22;701;52.526;13.408;2023-04-29T00:26:18;13.70;21.70
1413;DHT22;701;52.526;13.408;2023-04-29T00:28:46;13.70;21.70
1413;DHT22;701;52.526;13.408;2023-04-29T00:31:12;13.70;21.80
1413;DHT22;701;52.526;13.408;2023-04-29T00:33:38;13.70;21.90
1413;DHT22;701;52.526;13.408;2023-04-29T00:36:06;13.60;22.00
1413;DHT22;701;52.526;13.408;2023-04-29T00:38:32;13.60;22.00
1413;DHT22;701;52.526;13.408;2023-04-29T00:40:57;13.60;22.10
1413;DHT22;701;52.526;13.408;2023-04-29T00:43:23;13.60;22.00
1413;DHT22;701;52.526;13.408;2023-04-29T00:45:49;13.60;22.10
1413;DHT22;701;52.526;13.408;2023-04-29T00:48:15;13.50;22.00
1413;DHT22;701;52.526;13.408;2023-04-29T00:50:41;13.50;22.10
1413;DHT22;701;52.526;13.408;2023-04-29T00:53:09;13.50;22.40
1413;DHT22;701;52.526;13.408;2023-04-29T00:55:37;13.40;22.70
1413;DHT22;701;52.526;13.408;2023-04-29T00:58:03;13.40;22.70
1413;DHT22;701;52.526;13.408;2023-04-29T01:00:29;13.30;22.70
1413;DHT22;701;52.526;13.408;2023-04-29T01:02:56;13.30;22.70
1413;DHT22;701;52.526;13.408;2023-04-29T01:05:23;13.40;22.80
1413;DHT22;701;52.526;13.408;2023-04-29T01:18:57;13.50;23.00
1413;DHT22;701;52.526;13.408;2023-04-29T01:21:28;13.50;24.20
1413;DHT22;701;52.526;13.408;2023-04-29T01:23:56;13.40;24.80
1413;DHT22;701;52.526;13.408;2023-04-29T01:26:26;13.40;25.20
1413;DHT22;701;52.526;13.408;2023-04-29T01:29:43;13.40;25.30
1413;DHT22;701;52.526;13.408;2023-04-29T01:35:03;13.20;26.40
1413;DHT22;701;52.526;13.408;2023-04-29T01:37:41;13.20;26.20
1413;DHT22;701;52.526;13.408;2023-04-29T01:40:19;13.10;26.50
1413;DHT22;701;52.526;13.408;2023-04-29T01:43:03;13.10;27.00
1413;DHT22;701;52.526;13.408;2023-04-29T01:45:33;13.10;27.50
1413;DHT22;701;52.526;13.408;2023-04-29T01:47:59;13.10;28.00
1413;DHT22;701;52.526;13.408;2023-04-29T01:50:26;13.00;28.30
1413;DHT22;701;52.526;13.408;2023-04-29T01:52:54;13.00;28.40
1413;DHT22;701;52.526;13.408;2023-04-29T01:55:20;12.90;29.00
1413;DHT22;701;52.526;13.408;2023-04-29T01:57:57;12.90;29.50
1413;DHT22;701;52.526;13.408;2023-04-29T02:00:45;12.90;29.50
1413;DHT22;701;52.526;13.408;2023-04-29T02:03:10;12.90;29.50
1413;DHT22;701;52.526;13.408;2023-04-29T02:05:39;12.90;29.50
1413;DHT22;701;52.526;13.408;2023-04-29T02:08:05;12.80;29.80
1413;DHT22;701;52.526;13.408;2023-04-29T02:10:37;12.90;31.30
1413;DHT22;701;52.526;13.408;2023-04-29T02:13:13;12.80;30.90
1413;DHT22;701;52.526;13.408;2023-04-29T02:15:39;12.80;31.60
1413;DHT22;701;52.526;13.408;2023-04-29T02:18:05;12.80;31.40
1413;DHT22;701;52.526;13.408;2023-04-29T02:20:31;12.80;31.50
1413;DHT22;701;52.526;13.408;2023-04-29T02:22:57;12.80;31.60
1413;DHT22;701;52.526;13.408;2023-04-29T02:25:23;12.70;31.90
1413;DHT22;701;52.526;13.408;2023-04-29T02:27:49;12.80;31.90
1413;DHT22;701;52.526;13.408;2023-04-29T02:30:15;12.80;32.80
1413;DHT22;701;52.526;13.408;2023-04-29T02:32:40;12.70;32.90
1413;DHT22;701;52.526;13.408;2023-04-29T02:35:06;12.70;32.80
1413;DHT22;701;52.526;13.408;2023-04-29T02:37:33;12.80;33.30
1413;DHT22;701;52.526;13.408;2023-04-29T02:39:59;12.70;32.90
1413;DHT22;701;52.526;13.408;2023-04-29T02:42:26;12.80;33.70
1413;DHT22;701;52.526;13.408;2023-04-29T02:44:52;12.80;33.70
1413;DHT22;701;52.526;13.408;2023-04-29T02:47:17;12.80;33.70
1413;DHT22;701;52.526;13.408;2023-04-29T02:49:43;12.80;33.70
1413;DHT22;701;52.526;13.408;2023-04-29T02:52:10;12.80;33.70
1413;DHT22;701;52.526;13.408;2023-04-29T02:54:37;12.80;33.70
1413;DHT22;701;52.526;13.408;2023-04-29T02:57:03;12.80;33.70
1413;DHT22;701;52.526;13.408;2023-04-29T02:59:29;12.80;33.70
1413;DHT22;701;52.526;13.408;2023-04-29T03:01:55;12.80;33.70
1413;DHT22;701;52.526;13.408;2023-04-29T03:04:21;12.80;33.80
1413;DHT22;701;52.526;13.408;2023-04-29T03:06:47;12.80;34.00
1413;DHT22;701;52.526;13.408;2023-04-29T03:09:13;12.80;34.40
1413;DHT22;701;52.526;13.408;2023-04-29T03:11:39;12.80;34.30
1413;DHT22;701;52.526;13.408;2023-04-29T03:14:06;12.80;34.30
1413;DHT22;701;52.526;13.408;2023-04-29T03:16:31;12.80;34.90
1413;DHT22;701;52.526;13.408;2023-04-29T03:18:57;12.80;34.80
1413;DHT22;701;52.526;13.408;2023-04-29T03:21:23;12.80;34.70
1413;DHT22;701;52.526;13.408;2023-04-29T03:23:50;12.80;34.90
1413;DHT22;701;52.526;13.408;2023-04-29T03:26:22;12.80;35.10
1413;DHT22;701;52.526;13.408;2023-04-29T03:28:50;12.80;35.50
1413;DHT22;701;52.526;13.408;2023-04-29T03:31:15;12.80;35.30
1413;DHT22;701;52.526;13.408;2023-04-29T03:33:42;12.80;35.30
1413;DHT22;701;52.526;13.408;2023-04-29T03:36:07;12.90;35.70
1413;DHT22;701;52.526;13.408;2023-04-29T03:38:37;12.90;36.10
1413;DHT22;701;52.526;13.408;2023-04-29T03:41:04;12.90;35.90
1413;DHT22;701;52.526;13.408;2023-04-29T03:43:30;12.90;35.90
1413;DHT22;701;52.526;13.408;2023-04-29T03:45:56;12.90;36.10
1413;DHT22;701;52.526;13.408;2023-04-29T03:48:23;12.90;36.20
1413;DHT22;701;52.526;13.408;2023-04-29T03:50:50;12.90;36.50
1413;DHT22;701;52.526;13.408;2023-04-29T03:53:16;13.00;36.50
1413;DHT22;701;52.526;13.408;2023-04-29T03:55:43;13.00;36.40
1413;DHT22;701;52.526;13.408;2023-04-29T03:58:09;13.00;36.50
1413;DHT22;701;52.526;13.408;2023-04-29T04:00:35;13.10;36.80
1413;DHT22;701;52.526;13.408;2023-04-29T04:03:04;13.10;36.80
1413;DHT22;701;52.526;13.408;2023-04-29T04:05:30;13.10;36.60
1413;DHT22;701;52.526;13.408;2023-04-29T04:08:02;13.20;37.00
1413;DHT22;701;52.526;13.408;2023-04-29T04:10:47;13.20;36.90
1413;DHT22;701;52.526;13.408;2023-04-29T04:13:26;13.20;37.00
1413;DHT22;701;52.526;13.408;2023-04-29T04:15:52;13.20;37.00
1413;DHT22;701;52.526;13.408;2023-04-29T04:18:18;13.20;37.30
1413;DHT22;701;52.526;13.408;2023-04-29T04:20:44;13.30;37.50
1413;DHT22;701;52.526;13.408;2023-04-29T04:23:09;13.30;37.40
1413;DHT22;701;52.526;13.408;2023-04-29T04:25:35;13.30;37.70
1413;DHT22;701;52.526;13.408;2023-04-29T04:28:24;13.30;37.80
1413;DHT22;701;52.526;13.408;2023-04-29T04:30:58;13.40;37.70
1413;DHT22;701;52.526;13.408;2023-04-29T04:33:24;13.40;37.70
1413;DHT22;701;52.526;13.408;2023-04-29T04:35:50;13.50;37.80
1413;DHT22;701;52.526;13.408;2023-04-29T04:38:16;13.50;37.90
1413;DHT22;701;52.526;13.408;2023-04-29T04:40:43;13.60;37.80
1413;DHT22;701;52.526;13.408;2023-04-29T04:43:27;13.60;37.70
1413;DHT22;701;52.526;13.408;2023-04-29T04:45:53;13.70;38.50
1413;DHT22;701;52.526;13.408;2023-04-29T04:48:19;13.60;37.70
1413;DHT22;701;52.526;13.408;2023-04-29T04:50:48;13.70;38.00
1413;DHT22;701;52.526;13.408;2023-04-29T04:53:14;13.70;37.70
1413;DHT22;701;52.526;13.408;2023-04-29T04:55:54;13.70;37.70
1413;DHT22;701;52.526;13.408;2023-04-29T04:58:20;13.70;37.80
1413;DHT22;701;52.526;13.408;2023-04-29T05:00:46;13.70;37.90
1413;DHT22;701;52.526;13.408;2023-04-29T05:03:11;13.80;38.10
1413;DHT22;701;52.526;13.408;2023-04-29T05:05:37;13.80;38.20
1413;DHT22;701;52.526;13.408;2023-04-29T05:08:03;13.80;38.60
1413;DHT22;701;52.526;13.408;2023-04-29T05:10:42;13.80;39.00
1413;DHT22;701;52.526;13.408;2023-04-29T05:13:09;13.80;39.00
1413;DHT22;701;52.526;13.408;2023-04-29T05:15:35;13.90;39.10
1413;DHT22;701;52.526;13.408;2023-04-29T05:18:03;13.90;39.10
1413;DHT22;701;52.526;13.408;2023-04-29T05:20:29;13.90;39.10
1413;DHT22;701;52.526;13.408;2023-04-29T05:22:55;13.90;39.40
1413;DHT22;701;52.526;13.408;2023-04-29T05:25:22;13.90;39.40
1413;DHT22;701;52.526;13.408;2023-04-29T05:27:47;13.90;39.50
1413;DHT22;701;52.526;13.408;2023-04-29T05:30:16;13.90;39.90
1413;DHT22;701;52.526;13.408;2023-04-29T05:32:44;13.90;39.90
1413;DHT22;701;52.526;13.408;2023-04-29T05:35:18;14.00;40.00
1413;DHT22;701;52.526;13.408;2023-04-29T05:37:44;14.00;40.00
1413;DHT22;701;52.526;13.408;2023-04-29T05:40:36;14.00;40.10
1413;DHT22;701;52.526;13.408;2023-04-29T05:43:25;14.00;39.90
1413;DHT22;701;52.526;13.408;2023-04-29T05:45:52;14.10;40.30
1413;DHT22;701;52.526;13.408;2023-04-29T05:48:18;14.10;40.30
1413;DHT22;701;52.526;13.408;2023-04-29T05:50:43;14.10;40.20
1413;DHT22;701;52.526;13.408;2023-04-29T05:53:10;14.10;40.60
1413;DHT22;701;52.526;13.408;2023-04-29T05:55:38;14.10;40.50
1413;DHT22;701;52.526;13.408;2023-04-29T05:58:04;14.10;40.50
1413;DHT22;701;52.526;13.408;2023-04-29T06:00:30;14.10;40.70
1413;DHT22;701;52.526;13.408;2023-04-29T06:03:03;14.10;40.80
1413;DHT22;701;52.526;13.408;2023-04-29T06:05:29;14.10;41.30
1413;DHT22;701;52.526;13.408;2023-04-29T06:08:13;14.10;41.10
1413;DHT22;701;52.526;13.408;2023-04-29T06:10:45;14.10;41.70
1413;DHT22;701;52.526;13.408;2023-04-29T06:13:11;14.10;41.80
1413;DHT22;701;52.526;13.408;2023-04-29T06:15:37;14.00;42.50
1413;DHT22;701;52.526;13.408;2023-04-29T06:18:03;13.90;42.70
1413;DHT22;701;52.526;13.408;2023-04-29T06:20:29;13.90;43.40
1413;DHT22;701;52.526;13.408;2023-04-29T06:22:54;14.00;43.50
1413;DHT22;701;52.526;13.408;2023-04-29T06:25:20;14.00;43.30
1413;DHT22;701;52.526;13.408;2023-04-29T06:27:48;14.00;43.20
1413;DHT22;701;52.526;13.408;2023-04-29T06:30:16;14.00;43.10
1413;DHT22;701;52.526;13.408;2023-04-29T06:32:43;14.00;43.10
1413;DHT22;701;52.526;13.408;2023-04-29T06:35:09;14.10;43.50
1413;DHT22;701;52.526;13.408;2023-04-29T06:37:53;14.10;43.60
1413;DHT22;701;52.526;13.408;2023-04-29T06:40:39;14.10;42.90
1413;DHT22;701;52.526;13.408;2023-04-29T06:43:14;14.10;43.10
1413;DHT22;701;52.526;13.408;2023-04-29T06:45:58;14.10;43.60
1413;DHT22;701;52.526;13.408;2023-04-29T06:48:38;14.10;43.60
1413;DHT22;701;52.526;13.408;2023-04-29T06:51:04;14.10;43.60
1413;DHT22;701;52.526;13.408;2023-04-29T06:53:34;14.00;43.60
1413;DHT22;701;52.526;13.408;2023-04-29T06:56:00;14.00;43.50
1413;DHT22;701;52.526;13.408;2023-04-29T06:58:26;14.00;43.50
1413;DHT22;701;52.526;13.408;2023-04-29T07:00:51;14.00;43.50
1413;DHT22;701;52.526;13.408;2023-04-29T07:03:17;14.00;43.60
1413;DHT22;701;52.526;13.408;2023-04-29T07:05:44;13.90;43.40
1413;DHT22;701;52.526;13.408;2023-04-29T07:08:11;14.00;43.50
1413;DHT22;701;52.526;13.408;2023-04-29T07:10:37;13.90;43.40
1413;DHT22;701;52.526;13.408;2023-04-29T07:13:03;13.90;43.40
1413;DHT22;701;52.526;13.408;2023-04-29T07:15:29;13.90;43.40
1413;DHT22;701;52.526;13.408;2023-04-29T07:17:58;13.90;43.50
1413;DHT22;701;52.526;13.408;2023-04-29T07:20:25;13.80;44.30
1413;DHT22;701;52.526;13.408;2023-04-29T07:22:53;13.80;44.30
1413;DHT22;701;52.526;13.408;2023-04-29T07:25:18;13.70;44.70
1413;DHT22;701;52.526;13.408;2023-04-29T07:27:45;13.70;45.00
1413;DHT22;701;52.526;13.408;2023-04-29T07:30:11;13.70;45.40
1413;DHT22;701;52.526;13.408;2023-04-29T07:32:37;13.70;44.50
1413;DHT22;701;52.526;13.408;2023-04-29T07:35:04;13.70;44.00
1413;DHT22;701;52.526;13.408;2023-04-29T07:37:30;13.70;44.10
1413;DHT22;701;52.526;13.408;2023-04-29T07:39:56;13.70;43.30
1413;DHT22;701;52.526;13.408;2023-04-29T07:42:22;13.70;43.30
1413;DHT22;701;52.526;13.408;2023-04-29T07:44:47;13.70;43.30
1413;DHT22;701;52.526;13.408;2023-04-29T07:47:13;13.70;43.30
1413;DHT22;701;52.526;13.408;2023-04-29T07:49:39;13.70;42.90
1413;DHT22;701;52.526;13.408;2023-04-29T07:52:06;13.70;42.40
1413;DHT22;701;52.526;13.408;2023-04-29T07:54:35;13.70;42.40
1413;DHT22;701;52.526;13.408;2023-04-29T07:57:01;13.80;41.90
1413;DHT22;701;52.526;13.408;2023-04-29T07:59:28;13.80;41.10
1413;DHT22;701;52.526;13.408;2023-04-29T08:01:54;13.90;41.00
1413;DHT22;701;52.526;13.408;2023-04-29T08:04:20;13.90;40.30
1413;DHT22;701;52.526;13.408;2023-04-29T08:06:50;14.00;40.80
1413;DHT22;701;52.526;13.408;2023-04-29T08:09:16;13.90;39.30
1413;DHT22;701;52.526;13.408;2023-04-29T08:11:42;13.90;39.60
1413;DHT22;701;52.526;13.408;2023-04-29T08:14:11;13.90;40.20
1413;DHT22;701;52.526;13.408;2023-04-29T08:16:37;13.80;40.60
1413;DHT22;701;52.526;13.408;2023-04-29T08:19:03;13.80;41.00
1413;DHT22;701;52.526;13.408;2023-04-29T08:21:29;13.70;40.70
1413;DHT22;701;52.526;13.408;2023-04-29T08:23:57;13.60;40.30
1413;DHT22;701;52.526;13.408;2023-04-29T08:26:22;13.50;40.50
1413;DHT22;701;52.526;13.408;2023-04-29T08:28:48;13.50;40.50
1413;DHT22;701;52.526;13.408;2023-04-29T08:31:18;13.40;40.70
1413;DHT22;701;52.526;13.408;2023-04-29T08:33:44;13.40;40.60
1413;DHT22;701;52.526;13.408;2023-04-29T08:36:11;13.40;40.20
1413;DHT22;701;52.526;13.408;2023-04-29T08:38:37;13.40;39.70
1413;DHT22;701;52.526;13.408;2023-04-29T08:41:02;13.40;39.10
1413;DHT22;701;52.526;13.408;2023-04-29T08:43:28;13.40;38.80
1413;DHT22;701;52.526;13.408;2023-04-29T08:45:57;13.40;38.60
1413;DHT22;701;52.526;13.408;2023-04-29T08:48:23;13.40;38.60
1413;DHT22;701;52.526;13.408;2023-04-29T08:50:49;13.40;39.30
1413;DHT22;701;52.526;13.408;2023-04-29T08:53:15;13.50;38.70
1413;DHT22;701;52.526;13.408;2023-04-29T08:55:45;13.50;38.60
1413;DHT22;701;52.526;13.408;2023-04-29T08:58:12;13.40;38.60
1413;DHT22;701;52.526;13.408;2023-04-29T09:00:40;13.40;38.60
1413;DHT22;701;52.526;13.408;2023-04-29T09:06:10;13.40;37.70
1413;DHT22;701;52.526;13.408;2023-04-29T09:08:37;13.40;37.60
1413;DHT22;701;52.526;13.408;2023-04-29T09:11:04;13.40;37.20
1413;DHT22;701;52.526;13.408;2023-04-29T09:13:31;13.40;36.90
1413;DHT22;701;52.526;13.408;2023-04-29T09:15:57;13.40;36.80
1413;DHT22;701;52.526;13.408;2023-04-29T09:18:46;13.40;36.60
1413;DHT22;701;52.526;13.408;2023-04-29T09:23:45;13.40;36.30
1413;DHT22;701;52.526;13.408;2023-04-29T09:26:11;13.30;36.40
1413;DHT22;701;52.526;13.408;2023-04-29T09:28:36;13.30;36.60
1413;DHT22;701;52.526;13.408;2023-04-29T09:31:05;13.40;36.70
1413;DHT22;701;52.526;13.408;2023-04-29T09:33:49;13.40;36.60
1413;DHT22;701;52.526;13.408;2023-04-29T09:36:44;13.40;36.80
1413;DHT22;701;52.526;13.408;2023-04-29T09:39:21;13.40;37.70
1413;DHT22;701;52.526;13.408;2023-04-29T09:46:55;13.40;37.90
1413;DHT22;701;52.526;13.408;2023-04-29T09:49:23;13.40;37.30
1413;DHT22;701;52.526;13.408;2023-04-29T09:52:00;13.40;36.90
1413;DHT22;701;52.526;13.408;2023-04-29T09:54:28;13.40;36.70
1413;DHT22;701;52.526;13.408;2023-04-29T09:56:55;13.30;36.90
1413;DHT22;701;52.526;13.408;2023-04-29T09:59:22;13.20;36.60
1413;DHT22;701;52.526;13.408;2023-04-29T10:01:50;13.10;36.90
1413;DHT22;701;52.526;13.408;2023-04-29T10:04:17;13.10;37.10
1413;DHT22;701;52.526;13.408;2023-04-29T10:06:44;13.10;36.80
1413;DHT22;701;52.526;13.408;2023-04-29T10:09:14;13.00;37.10
1413;DHT22;701;52.526;13.408;2023-04-29T10:11:44;13.10;37.40
1413;DHT22;701;52.526;13.408;2023-04-29T10:14:18;13.10;37.30
1413;DHT22;701;52.526;13.408;2023-04-29T10:19:11;13.20;37.00
1413;DHT22;701;52.526;13.408;2023-04-29T10:21:40;13.30;36.50
1413;DHT22;701;52.526;13.408;2023-04-29T10:24:07;13.40;35.50
1413;DHT22;701;52.526;13.408;2023-04-29T10:26:37;13.40;35.20
1413;DHT22;701;52.526;13.408;2023-04-29T10:29:04;13.50;34.90
1413;DHT22;701;52.526;13.408;2023-04-29T10:31:33;13.50;34.30
1413;DHT22;701;52.526;13.408;2023-04-29T10:34:00;13.60;34.30
1413;DHT22;701;52.526;13.408;2023-04-29T10:36:27;13.70;34.10
1413;DHT22;701;52.526;13.408;2023-04-29T10:38:57;13.80;33.20
1413;DHT22;701;52.526;13.408;2023-04-29T10:41:42;13.80;32.40
1413;DHT22;701;52.526;13.408;2023-04-29T10:44:10;13.90;32.70
1413;DHT22;701;52.526;13.408;2023-04-29T10:46:36;13.90;31.50
1413;DHT22;701;52.526;13.408;2023-04-29T10:49:03;13.90;31.20
1413;DHT22;701;52.526;13.408;2023-04-29T10:54:15;13.90;30.60
1413;DHT22;701;52.526;13.408;2023-04-29T10:56:43;13.90;30.30
1413;DHT22;701;52.526;13.408;2023-04-29T10:59:14;14.00;30.20
1413;DHT22;701;52.526;13.408;2023-04-29T11:01:47;14.00;30.00
1413;DHT22;701;52.526;13.408;2023-04-29T11:04:14;14.20;30.00
1413;DHT22;701;52.526;13.408;2023-04-29T11:06:43;14.40;29.70
1413;DHT22;701;52.526;13.408;2023-04-29T11:09:13;14.60;29.00
1413;DHT22;701;52.526;13.408;2023-04-29T11:11:47;14.80;28.70
1413;DHT22;701;52.526;13.408;2023-04-29T11:14:22;15.00;27.40
1413;DHT22;701;52.526;13.408;2023-04-29T11:16:53;15.00;26.60
1413;DHT22;701;52.526;13.408;2023-04-29T11:19:30;15.10;26.20
1413;DHT22;701;52.526;13.408;2023-04-29T11:27:18;15.00;25.30
1413;DHT22;701;52.526;13.408;2023-04-29T11:29:45;15.00;25.40
1413;DHT22;701;52.526;13.408;2023-04-29T11:32:12;15.20;25.30
1413;DHT22;701;52.526;13.408;2023-04-29T11:34:37;15.40;25.10
1413;DHT22;701;52.526;13.408;2023-04-29T11:37:06;15.60;24.20
1413;DHT22;701;52.526;13.408;2023-04-29T11:39:35;15.90;23.20
1413;DHT22;701;52.526;13.408;2023-04-29T11:42:05;16.20;22.80
1413;DHT22;701;52.526;13.408;2023-04-29T11:44:33;16.40;21.70
1413;DHT22;701;52.526;13.408;2023-04-29T11:47:03;16.50;21.20
1413;DHT22;701;52.526;13.408;2023-04-29T11:49:30;16.60;21.30
1413;DHT22;701;52.526;13.408;2023-04-29T11:51:57;16.60;20.10
1413;DHT22;701;52.526;13.408;2023-04-29T11:54:27;16.70;20.20
1413;DHT22;701;52.526;13.408;2023-04-29T11:56:57;16.90;19.50
1413;DHT22;701;52.526;13.408;2023-04-29T11:59:23;17.00;19.20
1413;DHT22;701;52.526;13.408;2023-04-29T12:01:49;17.00;17.80
1413;DHT22;701;52.526;13.408;2023-04-29T12:04:16;17.10;18.40
1413;DHT22;701;52.526;13.408;2023-04-29T12:06:42;17.10;18.00
1413;DHT22;701;52.526;13.408;2023-04-29T12:09:08;17.10;17.20
1413;DHT22;701;52.526;13.408;2023-04-29T12:11:35;17.10;17.30
1413;DHT22;701;52.526;13.408;2023-04-29T12:14:02;17.00;17.40
1413;DHT22;701;52.526;13.408;2023-04-29T12:16:31;16.80;17.60
1413;DHT22;701;52.526;13.408;2023-04-29T12:18:58;16.70;17.70
1413;DHT22;701;52.526;13.408;2023-04-29T12:21:24;16.50;17.50
1413;DHT22;701;52.526;13.408;2023-04-29T12:23:51;16.30;17.60
1413;DHT22;701;52.526;13.408;2023-04-29T12:26:17;16.20;18.20
1413;DHT22;701;52.526;13.408;2023-04-29T12:28:47;16.10;18.70
1413;DHT22;701;52.526;13.408;2023-04-29T12:31:14;16.10;19.00
1413;DHT22;701;52.526;13.408;2023-04-29T12:33:43;16.10;19.10
1413;DHT22;701;52.526;13.408;2023-04-29T12:36:16;16.20;19.20
1413;DHT22;701;52.526;13.408;2023-04-29T12:38:42;16.40;18.50
1413;DHT22;701;52.526;13.408;2023-04-29T12:41:08;16.70;18.40
1413;DHT22;701;52.526;13.408;2023-04-29T12:43:36;17.00;17.90
1413;DHT22;701;52.526;13.408;2023-04-29T12:46:04;17.30;17.30
1413;DHT22;701;52.526;13.408;2023-04-29T12:48:36;17.60;16.60
1413;DHT22;701;52.526;13.408;2023-04-29T12:51:03;17.70;15.70
1413;DHT22;701;52.526;13.408;2023-04-29T12:53:30;17.90;14.80
1413;DHT22;701;52.526;13.408;2023-04-29T12:55:56;18.00;14.80
1413;DHT22;701;52.526;13.408;2023-04-29T12:58:22;18.20;14.60
1413;DHT22;701;52.526;13.408;2023-04-29T13:00:48;18.40;13.90
1413;DHT22;701;52.526;13.408;2023-04-29T13:03:14;18.60;13.50
1413;DHT22;701;52.526;13.408;2023-04-29T13:05:40;18.90;13.10
1413;DHT22;701;52.526;13.408;2023-04-29T13:08:06;19.00;11.90
1413;DHT22;701;52.526;13.408;2023-04-29T13:10:35;19.20;11.80
1413;DHT22;701;52.526;13.408;2023-04-29T13:13:01;19.20;11.80
1413;DHT22;701;52.526;13.408;2023-04-29T13:15:27;19.10;11.30
1413;DHT22;701;52.526;13.408;2023-04-29T13:17:53;19.20;11.50
1413;DHT22;701;52.526;13.408;2023-04-29T13:20:19;19.30;11.30
1413;DHT22;701;52.526;13.408;2023-04-29T13:22:46;19.30;11.10
1413;DHT22;701;52.526;13.408;2023-04-29T13:25:12;19.30;10.50
1413;DHT22;701;52.526;13.408;2023-04-29T13:27:40;19.30;10.40
1413;DHT22;701;52.526;13.408;2023-04-29T13:30:06;19.20;10.10
1413;DHT22;701;52.526;13.408;2023-04-29T13:32:33;19.20;10.30
1413;DHT22;701;52.526;13.408;2023-04-29T13:34:59;19.20;10.30
1413;DHT22;701;52.526;13.408;2023-04-29T13:37:25;19.10;10.10
1413;DHT22;701;52.526;13.408;2023-04-29T13:39:51;19.10;10.30
1413;DHT22;701;52.526;13.408;2023-04-29T13:42:16;19.00;10.20
1413;DHT22;701;52.526;13.408;2023-04-29T13:44:42;19.00;10.20
1413;DHT22;701;52.526;13.408;2023-04-29T13:47:14;19.00;10.00
1413;DHT22;701;52.526;13.408;2023-04-29T13:49:40;19.00;10.00
1413;DHT22;701;52.526;13.408;2023-04-29T13:52:12;19.00;10.20
1413;DHT22;701;52.526;13.408;2023-04-29T13:54:38;19.10;10.00
1413;DHT22;701;52.526;13.408;2023-04-29T13:57:04;19.20;9.70
1413;DHT22;701;52.526;13.408;2023-04-29T13:59:34;19.20;9.70
1413;DHT22;701;52.526;13.408;2023-04-29T14:02:01;19.20;9.50
1413;DHT22;701;52.526;13.408;2023-04-29T14:04:27;19.10;9.10
1413;DHT22;701;52.526;13.408;2023-04-29T14:06:54;19.00;8.80
1413;DHT22;701;52.526;13.408;2023-04-29T14:09:20;18.90;8.90
1413;DHT22;701;52.526;13.408;2023-04-29T14:11:47;19.00;9.00
1413;DHT22;701;52.526;13.408;2023-04-29T14:14:14;18.90;8.20
1413;DHT22;701;52.526;13.408;2023-04-29T14:16:40;18.70;8.40
1413;DHT22;701;52.526;13.408;2023-04-29T14:19:08;18.70;8.90
1413;DHT22;701;52.526;13.408;2023-04-29T14:21:34;18.70;8.60
1413;DHT22;701;52.526;13.408;2023-04-29T14:24:01;18.60;8.90
1413;DHT22;701;52.526;13.408;2023-04-29T14:26:28;18.60;9.20
1413;DHT22;701;52.526;13.408;2023-04-29T14:28:57;18.60;9.40
1413;DHT22;701;52.526;13.408;2023-04-29T14:31:30;18.70;9.60
1413;DHT22;701;52.526;13.408;2023-04-29T14:33:58;18.80;9.50
1413;DHT22;701;52.526;13.408;2023-04-29T14:36:24;18.80;9.20
1413;DHT22;701;52.526;13.408;2023-04-29T14:38:51;19.00;9.10
1413;DHT22;701;52.526;13.408;2023-04-29T14:41:17;19.10;9.00
1413;DHT22;701;52.526;13.408;2023-04-29T14:43:43;19.00;8.50
1413;DHT22;701;52.526;13.408;2023-04-29T14:46:09;19.00;8.60
1413;DHT22;701;52.526;13.408;2023-04-29T14:48:35;18.80;8.40
1413;DHT22;701;52.526;13.408;2023-04-29T14:51:01;18.80;8.70
1413;DHT22;701;52.526;13.408;2023-04-29T14:53:26;18.70;8.70
1413;DHT22;701;52.526;13.408;2023-04-29T14:55:52;18.60;8.80
1413;DHT22;701;52.526;13.408;2023-04-29T14:58:18;18.50;9.00
1413;DHT22;701;52.526;13.408;2023-04-29T15:00:43;18.50;9.00
1413;DHT22;701;52.526;13.408;2023-04-29T15:03:09;18.60;9.20
1413;DHT22;701;52.526;13.408;2023-04-29T15:05:35;18.60;9.40
1413;DHT22;701;52.526;13.408;2023-04-29T15:08:01;18.70;9.00
1413;DHT22;701;52.526;13.408;2023-04-29T15:10:29;18.70;8.70
1413;DHT22;701;52.526;13.408;2023-04-29T15:12:56;18.60;8.20
1413;DHT22;701;52.526;13.408;2023-04-29T15:15:22;18.60;8.30
1413;DHT22;701;52.526;13.408;2023-04-29T15:17:48;18.50;8.00
1413;DHT22;701;52.526;13.408;2023-04-29T15:20:14;18.40;7.70
1413;DHT22;701;52.526;13.408;2023-04-29T15:22:40;18.50;7.50
1413;DHT22;701;52.526;13.408;2023-04-29T15:25:07;18.50;7.50
1413;DHT22;701;52.526;13.408;2023-04-29T15:27:34;18.50;7.50
1413;DHT22;701;52.526;13.408;2023-04-29T15:30:00;18.50;7.50
1413;DHT22;701;52.526;13.408;2023-04-29T15:32:26;18.50;7.50
1413;DHT22;701;52.526;13.408;2023-04-29T15:35:00;18.40;7.40
1413;DHT22;701;52.526;13.408;2023-04-29T15:37:26;18.40;7.40
1413;DHT22;701;52.526;13.408;2023-04-29T15:39:53;18.30;7.30
1413;DHT22;701;52.526;13.408;2023-04-29T15:42:19;18.20;7.30
1413;DHT22;701;52.526;13.408;2023-04-29T15:44:45;18.10;7.20
1413;DHT22;701;52.526;13.408;2023-04-29T15:47:11;18.10;7.20
1413;DHT22;701;52.526;13.408;2023-04-29T15:49:37;18.00;7.10
1413;DHT22;701;52.526;13.408;2023-04-29T15:52:03;17.90;7.50
1413;DHT22;701;52.526;13.408;2023-04-29T15:54:29;17.80;7.40
1413;DHT22;701;52.526;13.408;2023-04-29T15:56:55;17.60;7.60
1413;DHT22;701;52.526;13.408;2023-04-29T15:59:21;17.60;8.00
1413;DHT22;701;52.526;13.408;2023-04-29T16:01:47;17.50;8.30
1413;DHT22;701;52.526;13.408;2023-04-29T16:04:12;17.40;8.50
1413;DHT22;701;52.526;13.408;2023-04-29T16:06:38;17.40;8.70
1413;DHT22;701;52.526;13.408;2023-04-29T16:09:04;17.30;8.80
1413;DHT22;701;52.526;13.408;2023-04-29T16:11:30;17.40;9.00
1413;DHT22;701;52.526;13.408;2023-04-29T16:13:56;17.40;9.00
1413;DHT22;701;52.526;13.408;2023-04-29T16:16:22;17.40;9.00
1413;DHT22;701;52.526;13.408;2023-04-29T16:18:49;17.50;9.30
1413;DHT22;701;52.526;13.408;2023-04-29T16:21:15;17.50;9.30
1413;DHT22;701;52.526;13.408;2023-04-29T16:23:42;17.50;9.90
1413;DHT22;701;52.526;13.408;2023-04-29T16:26:08;17.50;9.50
1413;DHT22;701;52.526;13.408;2023-04-29T16:28:34;17.30;9.70
1413;DHT22;701;52.526;13.408;2023-04-29T16:31:00;17.20;10.00
1413;DHT22;701;52.526;13.408;2023-04-29T16:33:25;17.20;10.40
1413;DHT22;701;52.526;13.408;2023-04-29T16:35:51;17.20;10.50
1413;DHT22;701;52.526;13.408;2023-04-29T16:38:18;17.20;10.50
1413;DHT22;701;52.526;13.408;2023-04-29T16:40:44;17.10;10.40
1413;DHT22;701;52.526;13.408;2023-04-29T16:43:10;17.10;10.40
1413;DHT22;701;52.526;13.408;2023-04-29T16:45:39;17.00;10.30